M\v Black Rhino — V7TR7 — position and weather

sailwx.info

Track history (hours):
 
Tides and Currents Weather Stations Pressure Air Temp Water Temp Dewpoint Dewpoint Depression Visibility Wind Speed Wind Dir Waves Ship Positions

M\v Black Rhino

Last reported at 2014-Sep-29 04:12 UTC. Time now 2014-Sep-30 11:52 UTC.
Position S 29°14' E 031°50'.

Length 100 m; draft 6.1 m.

Type: Cargo ship. MMSI: 538090408.

Date/timePositionNaut miles runAvg speedWind from/ knotsBaromVisibWave heightAir tempDewpointWater temp
2014-Sep-29 04:12S 29°14' E 031°50'710.4
2014-Sep-29 03:32S 29°18' E 031°44'1010.7
2014-Sep-29 02:34S 29°25' E 031°36'1110.6
2014-Sep-29 01:33S 29°33' E 031°27'1010.3
2014-Sep-29 00:34S 29°40' E 031°18'10 9.7
2014-Sep-28 23:33S 29°47' E 031°10'9 8.8
2014-Sep-28 22:33S 29°53' E 031°03'0 0.2
2014-Sep-28 21:22S 29°52' E 031°03'0 0.0
2014-Sep-28 20:16S 29°52' E 031°03'0 0.0
2014-Sep-28 19:28S 29°52' E 031°03'0 0.0
2014-Sep-28 18:16S 29°52' E 031°03'0 0.0
2014-Sep-28 17:04S 29°52' E 031°03'0 0.0
2014-Sep-28 16:16S 29°52' E 031°03'0 0.0
2014-Sep-28 15:16S 29°52' E 031°03'0 0.0
2014-Sep-28 14:10S 29°52' E 031°03'0 0.0
2014-Sep-28 13:16S 29°52' E 031°03'0 0.0
2014-Sep-28 12:16S 29°52' E 031°03'0 0.0
2014-Sep-28 11:28S 29°52' E 031°03'0 0.0
2014-Sep-28 09:22S 29°52' E 031°03'0 0.0
2014-Sep-28 08:22S 29°52' E 031°03'0 0.0
2014-Sep-28 07:22S 29°52' E 031°03'0 0.0
2014-Sep-28 06:28S 29°52' E 031°03'0 0.0
2014-Sep-28 05:22S 29°52' E 031°03'0 0.0
2014-Sep-28 04:28S 29°52' E 031°03'0 0.0
2014-Sep-28 03:28S 29°52' E 031°03'0 0.0
2014-Sep-28 02:28S 29°52' E 031°03'0 0.0
2014-Sep-28 01:28S 29°52' E 031°03'0 0.0
2014-Sep-28 00:28S 29°52' E 031°03'0 0.0
2014-Sep-27 23:22S 29°52' E 031°03'0 0.0
2014-Sep-27 22:28S 29°52' E 031°03'0 0.0
2014-Sep-27 21:28S 29°52' E 031°03'0 0.0
2014-Sep-27 20:28S 29°52' E 031°03'0 0.0
2014-Sep-27 19:28S 29°52' E 031°03'0 0.0
2014-Sep-27 18:04S 29°52' E 031°03'0 0.0
2014-Sep-27 16:16S 29°52' E 031°03'0 0.0
2014-Sep-27 15:28S 29°52' E 031°03'0 0.0
2014-Sep-27 14:22S 29°52' E 031°03'0 0.0
2014-Sep-27 13:22S 29°52' E 031°03'0 0.0
2014-Sep-27 12:22S 29°52' E 031°03'0 0.0
2014-Sep-27 11:10S 29°52' E 031°03'0 0.0
2014-Sep-27 10:16S 29°52' E 031°03'0 0.0
2014-Sep-27 09:28S 29°52' E 031°03'0 0.0
2014-Sep-27 08:10S 29°52' E 031°03'0 0.0
2014-Sep-27 07:22S 29°52' E 031°03'0 0.0
2014-Sep-27 06:22S 29°52' E 031°03'0 0.0
2014-Sep-27 05:22S 29°52' E 031°03'0 0.0
2014-Sep-27 03:28S 29°52' E 031°03'0 0.0
2014-Sep-27 02:28S 29°52' E 031°03'0 0.0
2014-Sep-27 01:10S 29°52' E 031°03'0 0.0
2014-Sep-26 23:22S 29°52' E 031°03'0 0.0
2014-Sep-26 22:22S 29°52' E 031°03'0 0.0
2014-Sep-26 21:22S 29°52' E 031°03'0 0.0
2014-Sep-26 20:16S 29°52' E 031°03'0 0.0
2014-Sep-26 19:10S 29°52' E 031°03'0 0.0
2014-Sep-26 18:16S 29°52' E 031°03'0 0.0
2014-Sep-26 17:28S 29°52' E 031°03'0 0.0
2014-Sep-26 16:22S 29°52' E 031°03'0 0.0
2014-Sep-26 15:28S 29°52' E 031°03'0 0.0
2014-Sep-26 14:28S 29°52' E 031°03'0 0.0
2014-Sep-26 13:22S 29°52' E 031°03'0 0.0
2014-Sep-26 12:22S 29°52' E 031°03'0 0.0
2014-Sep-26 11:10S 29°52' E 031°03'0 0.0
2014-Sep-26 10:28S 29°52' E 031°03'0 0.0
2014-Sep-26 09:22S 29°52' E 031°03'0 0.0
2014-Sep-26 08:28S 29°52' E 031°03'0 0.0
2014-Sep-26 07:28S 29°52' E 031°03'0 0.0
2014-Sep-26 06:28S 29°52' E 031°03'0 0.0
2014-Sep-26 05:28S 29°52' E 031°03'0 0.0
2014-Sep-26 04:16S 29°52' E 031°03'0 0.0
2014-Sep-26 03:28S 29°52' E 031°03'0 0.0
2014-Sep-26 02:22S 29°52' E 031°03'0 0.0
2014-Sep-26 01:28S 29°52' E 031°03'0 0.0
2014-Sep-26 00:16S 29°52' E 031°03'0 0.0
2014-Sep-25 23:22S 29°52' E 031°03'1 1.8
2014-Sep-25 22:33S 29°51' E 031°04'2 2.2
2014-Sep-25 21:26S 29°49' E 031°05'0 0.4
2014-Sep-25 20:33S 29°49' E 031°05'1 1.0
2014-Sep-25 19:32S 29°48' E 031°06'7 7.1
2014-Sep-25 18:33S 29°42' E 031°09'3 2.6
2014-Sep-25 17:31S 29°39' E 031°10'0 0.0
2014-Sep-25 16:31S 29°39' E 031°10'0 0.0
2014-Sep-25 15:13S 29°39' E 031°10'0 0.0
2014-Sep-25 14:25S 29°39' E 031°10'0 0.0
2014-Sep-25 13:13S 29°39' E 031°10'0 0.0
2014-Sep-25 12:31S 29°39' E 031°10'0 0.0
2014-Sep-25 11:19S 29°39' E 031°10'0 0.0
2014-Sep-25 10:13S 29°39' E 031°10'0 0.0
2014-Sep-25 09:25S 29°39' E 031°10'0 0.1
2014-Sep-25 08:31S 29°39' E 031°10'0 0.0
2014-Sep-25 07:19S 29°39' E 031°10'0 0.0
2014-Sep-25 06:25S 29°39' E 031°10'0 0.1
2014-Sep-25 05:31S 29°39' E 031°10'0 0.1
2014-Sep-25 04:25S 29°39' E 031°10'0 0.1
2014-Sep-25 03:31S 29°40' E 031°10'0 0.0
2014-Sep-25 02:19S 29°40' E 031°10'0 0.0
2014-Sep-25 01:19S 29°40' E 031°10'0 0.0
2014-Sep-25 00:19S 29°40' E 031°10'0 0.1
2014-Sep-24 23:32S 29°40' E 031°10'0 0.1
2014-Sep-24 22:28S 29°40' E 031°10'0 0.0
2014-Sep-24 21:26S 29°40' E 031°10'0 0.0
2014-Sep-24 20:31S 29°40' E 031°10'0 0.0
2014-Sep-24 19:31S 29°40' E 031°10'2 2.1
2014-Sep-24 18:32S 29°41' E 031°08'1 0.5
2014-Sep-24 17:28S 29°41' E 031°08'0 0.2
2014-Sep-24 16:16S 29°41' E 031°08'0 0.1
2014-Sep-24 15:22S 29°41' E 031°08'0 0.2
2014-Sep-24 14:29S 29°41' E 031°08'0 0.3
2014-Sep-24 13:32S 29°41' E 031°09'4 3.8
2014-Sep-24 12:33S 29°44' E 031°07'0 0.4
2014-Sep-24 11:26S 29°44' E 031°06'0 0.2
2014-Sep-24 10:29S 29°44' E 031°06'0 0.0
2014-Sep-24 09:30S 29°44' E 031°06'0 0.0
2014-Sep-24 08:24S 29°44' E 031°06'0 0.0
2014-Sep-24 07:18S 29°44' E 031°06'0 0.0
2014-Sep-24 06:06S 29°44' E 031°06'0 0.0
2014-Sep-24 05:30S 29°44' E 031°06'0 0.0
2014-Sep-24 04:24S 29°44' E 031°06'0 0.0
2014-Sep-24 03:30S 29°44' E 031°06'0 0.0
2014-Sep-24 02:30S 29°44' E 031°06'0 0.0
2014-Sep-24 01:30S 29°44' E 031°06'0 0.0
2014-Sep-24 00:12S 29°44' E 031°06'0 0.0
2014-Sep-23 23:30S 29°44' E 031°06'0 0.0
2014-Sep-23 22:24S 29°44' E 031°06'0 0.0
2014-Sep-23 21:18S 29°44' E 031°06'0 0.0
2014-Sep-23 20:30S 29°44' E 031°06'0 0.0
2014-Sep-23 19:30S 29°44' E 031°06'0 0.0
2014-Sep-23 18:33S 29°44' E 031°06'0 0.0
2014-Sep-23 17:24S 29°44' E 031°06'0 0.0
2014-Sep-23 16:30S 29°44' E 031°06'0 0.0
2014-Sep-23 15:33S 29°44' E 031°06'0 0.0
2014-Sep-23 14:33S 29°44' E 031°06'0 0.0
2014-Sep-23 13:33S 29°44' E 031°06'0 0.1
2014-Sep-23 12:33S 29°44' E 031°06'0 0.0
2014-Sep-23 11:33S 29°44' E 031°06'0 0.0
2014-Sep-23 10:27S 29°44' E 031°07'0 0.0
2014-Sep-23 09:33S 29°44' E 031°07'0 0.0
2014-Sep-23 08:33S 29°44' E 031°07'0 0.0
2014-Sep-23 07:27S 29°44' E 031°07'0 0.0
2014-Sep-23 06:33S 29°44' E 031°07'0 0.0
2014-Sep-23 05:27S 29°44' E 031°07'0 0.0
2014-Sep-23 04:21S 29°44' E 031°07'0 0.0
2014-Sep-23 03:27S 29°44' E 031°07'0 0.0
2014-Sep-23 02:33S 29°44' E 031°07'0 0.0
2014-Sep-23 01:27S 29°44' E 031°07'0 0.0
2014-Sep-23 00:27S 29°44' E 031°07'0 0.0
2014-Sep-22 23:27S 29°44' E 031°07'0 0.0
2014-Sep-22 22:15S 29°44' E 031°07'0 0.0
2014-Sep-22 21:15S 29°44' E 031°07'0 0.0
2014-Sep-22 20:33S 29°44' E 031°07'0 0.0
2014-Sep-22 19:33S 29°44' E 031°07'0 0.0
2014-Sep-22 18:15S 29°44' E 031°07'0 0.0
2014-Sep-22 17:27S 29°44' E 031°07'0 0.0
2014-Sep-22 16:33S 29°44' E 031°07'0 0.0
2014-Sep-22 15:33S 29°44' E 031°07'0 0.0
2014-Sep-22 14:33S 29°44' E 031°07'0 0.0
2014-Sep-22 13:33S 29°44' E 031°07'0 0.0
2014-Sep-22 12:15S 29°44' E 031°07'0 0.0
2014-Sep-22 11:33S 29°44' E 031°07'0 0.0
2014-Sep-22 10:33S 29°44' E 031°07'0 0.0
2014-Sep-22 09:21S 29°44' E 031°07'0 0.0
2014-Sep-22 08:21S 29°44' E 031°07'0 0.0
2014-Sep-22 07:27S 29°44' E 031°07'0 0.0
2014-Sep-22 06:33S 29°44' E 031°07'0 0.0
2014-Sep-22 05:27S 29°44' E 031°07'0 0.0
2014-Sep-22 04:33S 29°44' E 031°07'2 1.9
2014-Sep-22 03:32S 29°46' E 031°06'7 7.1
2014-Sep-22 02:33S 29°44' E 031°14'1111.3
2014-Sep-22 01:33S 29°36' E 031°23'1111.2
2014-Sep-22 00:33S 29°28' E 031°32'  
Track history (hours):
 
Tides and Currents Weather Stations Pressure Air Temp Water Temp Dewpoint Dewpoint Depression Visibility Wind Speed Wind Dir Waves Ship Positions

M\v Black Rhino

Last reported at 2014-Sep-29 04:12 UTC. Time now 2014-Sep-30 11:52 UTC.
Position S 29°14' E 031°50'.

Length 100 m; draft 6.1 m.

Type: Cargo ship. MMSI: 538090408.

Date/timePositionNaut miles runAvg speedWind from/ knotsBaromVisibWave heightAir tempDewpointWater temp
2014-Sep-29 04:12S 29°14' E 031°50'710.4
2014-Sep-29 03:32S 29°18' E 031°44'1010.7
2014-Sep-29 02:34S 29°25' E 031°36'1110.6
2014-Sep-29 01:33S 29°33' E 031°27'1010.3
2014-Sep-29 00:34S 29°40' E 031°18'10 9.7
2014-Sep-28 23:33S 29°47' E 031°10'9 8.8
2014-Sep-28 22:33S 29°53' E 031°03'0 0.2
2014-Sep-28 21:22S 29°52' E 031°03'0 0.0
2014-Sep-28 20:16S 29°52' E 031°03'0 0.0
2014-Sep-28 19:28S 29°52' E 031°03'0 0.0
2014-Sep-28 18:16S 29°52' E 031°03'0 0.0
2014-Sep-28 17:04S 29°52' E 031°03'0 0.0
2014-Sep-28 16:16S 29°52' E 031°03'0 0.0
2014-Sep-28 15:16S 29°52' E 031°03'0 0.0
2014-Sep-28 14:10S 29°52' E 031°03'0 0.0
2014-Sep-28 13:16S 29°52' E 031°03'0 0.0
2014-Sep-28 12:16S 29°52' E 031°03'0 0.0
2014-Sep-28 11:28S 29°52' E 031°03'0 0.0
2014-Sep-28 09:22S 29°52' E 031°03'0 0.0
2014-Sep-28 08:22S 29°52' E 031°03'0 0.0
2014-Sep-28 07:22S 29°52' E 031°03'0 0.0
2014-Sep-28 06:28S 29°52' E 031°03'0 0.0
2014-Sep-28 05:22S 29°52' E 031°03'0 0.0
2014-Sep-28 04:28S 29°52' E 031°03'0 0.0
2014-Sep-28 03:28S 29°52' E 031°03'0 0.0
2014-Sep-28 02:28S 29°52' E 031°03'0 0.0
2014-Sep-28 01:28S 29°52' E 031°03'0 0.0
2014-Sep-28 00:28S 29°52' E 031°03'0 0.0
2014-Sep-27 23:22S 29°52' E 031°03'0 0.0
2014-Sep-27 22:28S 29°52' E 031°03'0 0.0
2014-Sep-27 21:28S 29°52' E 031°03'0 0.0
2014-Sep-27 20:28S 29°52' E 031°03'0 0.0
2014-Sep-27 19:28S 29°52' E 031°03'0 0.0
2014-Sep-27 18:04S 29°52' E 031°03'0 0.0
2014-Sep-27 16:16S 29°52' E 031°03'0 0.0
2014-Sep-27 15:28S 29°52' E 031°03'0 0.0
2014-Sep-27 14:22S 29°52' E 031°03'0 0.0
2014-Sep-27 13:22S 29°52' E 031°03'0 0.0
2014-Sep-27 12:22S 29°52' E 031°03'0 0.0
2014-Sep-27 11:10S 29°52' E 031°03'0 0.0
2014-Sep-27 10:16S 29°52' E 031°03'0 0.0
2014-Sep-27 09:28S 29°52' E 031°03'0 0.0
2014-Sep-27 08:10S 29°52' E 031°03'0 0.0
2014-Sep-27 07:22S 29°52' E 031°03'0 0.0
2014-Sep-27 06:22S 29°52' E 031°03'0 0.0
2014-Sep-27 05:22S 29°52' E 031°03'0 0.0
2014-Sep-27 03:28S 29°52' E 031°03'0 0.0
2014-Sep-27 02:28S 29°52' E 031°03'0 0.0
2014-Sep-27 01:10S 29°52' E 031°03'0 0.0
2014-Sep-26 23:22S 29°52' E 031°03'0 0.0
2014-Sep-26 22:22S 29°52' E 031°03'0 0.0
2014-Sep-26 21:22S 29°52' E 031°03'0 0.0
2014-Sep-26 20:16S 29°52' E 031°03'0 0.0
2014-Sep-26 19:10S 29°52' E 031°03'0 0.0
2014-Sep-26 18:16S 29°52' E 031°03'0 0.0
2014-Sep-26 17:28S 29°52' E 031°03'0 0.0
2014-Sep-26 16:22S 29°52' E 031°03'0 0.0
2014-Sep-26 15:28S 29°52' E 031°03'0 0.0
2014-Sep-26 14:28S 29°52' E 031°03'0 0.0
2014-Sep-26 13:22S 29°52' E 031°03'0 0.0
2014-Sep-26 12:22S 29°52' E 031°03'0 0.0
2014-Sep-26 11:10S 29°52' E 031°03'0 0.0
2014-Sep-26 10:28S 29°52' E 031°03'0 0.0
2014-Sep-26 09:22S 29°52' E 031°03'0 0.0
2014-Sep-26 08:28S 29°52' E 031°03'0 0.0
2014-Sep-26 07:28S 29°52' E 031°03'0 0.0
2014-Sep-26 06:28S 29°52' E 031°03'0 0.0
2014-Sep-26 05:28S 29°52' E 031°03'0 0.0
2014-Sep-26 04:16S 29°52' E 031°03'0 0.0
2014-Sep-26 03:28S 29°52' E 031°03'0 0.0
2014-Sep-26 02:22S 29°52' E 031°03'0 0.0
2014-Sep-26 01:28S 29°52' E 031°03'0 0.0
2014-Sep-26 00:16S 29°52' E 031°03'0 0.0
2014-Sep-25 23:22S 29°52' E 031°03'1 1.8
2014-Sep-25 22:33S 29°51' E 031°04'2 2.2
2014-Sep-25 21:26S 29°49' E 031°05'0 0.4
2014-Sep-25 20:33S 29°49' E 031°05'1 1.0
2014-Sep-25 19:32S 29°48' E 031°06'7 7.1
2014-Sep-25 18:33S 29°42' E 031°09'3 2.6
2014-Sep-25 17:31S 29°39' E 031°10'0 0.0
2014-Sep-25 16:31S 29°39' E 031°10'0 0.0
2014-Sep-25 15:13S 29°39' E 031°10'0 0.0
2014-Sep-25 14:25S 29°39' E 031°10'0 0.0
2014-Sep-25 13:13S 29°39' E 031°10'0 0.0
2014-Sep-25 12:31S 29°39' E 031°10'0 0.0
2014-Sep-25 11:19S 29°39' E 031°10'0 0.0
2014-Sep-25 10:13S 29°39' E 031°10'0 0.0
2014-Sep-25 09:25S 29°39' E 031°10'0 0.1
2014-Sep-25 08:31S 29°39' E 031°10'0 0.0
2014-Sep-25 07:19S 29°39' E 031°10'0 0.0
2014-Sep-25 06:25S 29°39' E 031°10'0 0.1
2014-Sep-25 05:31S 29°39' E 031°10'0 0.1
2014-Sep-25 04:25S 29°39' E 031°10'0 0.1
2014-Sep-25 03:31S 29°40' E 031°10'0 0.0
2014-Sep-25 02:19S 29°40' E 031°10'0 0.0
2014-Sep-25 01:19S 29°40' E 031°10'0 0.0
2014-Sep-25 00:19S 29°40' E 031°10'0 0.1
2014-Sep-24 23:32S 29°40' E 031°10'0 0.1
2014-Sep-24 22:28S 29°40' E 031°10'0 0.0
2014-Sep-24 21:26S 29°40' E 031°10'0 0.0
2014-Sep-24 20:31S 29°40' E 031°10'0 0.0
2014-Sep-24 19:31S 29°40' E 031°10'2 2.1
2014-Sep-24 18:32S 29°41' E 031°08'1 0.5
2014-Sep-24 17:28S 29°41' E 031°08'0 0.2
2014-Sep-24 16:16S 29°41' E 031°08'0 0.1
2014-Sep-24 15:22S 29°41' E 031°08'0 0.2
2014-Sep-24 14:29S 29°41' E 031°08'0 0.3
2014-Sep-24 13:32S 29°41' E 031°09'4 3.8
2014-Sep-24 12:33S 29°44' E 031°07'0 0.4
2014-Sep-24 11:26S 29°44' E 031°06'0 0.2
2014-Sep-24 10:29S 29°44' E 031°06'0 0.0
2014-Sep-24 09:30S 29°44' E 031°06'0 0.0
2014-Sep-24 08:24S 29°44' E 031°06'0 0.0
2014-Sep-24 07:18S 29°44' E 031°06'0 0.0
2014-Sep-24 06:06S 29°44' E 031°06'0 0.0
2014-Sep-24 05:30S 29°44' E 031°06'0 0.0
2014-Sep-24 04:24S 29°44' E 031°06'0 0.0
2014-Sep-24 03:30S 29°44' E 031°06'0 0.0
2014-Sep-24 02:30S 29°44' E 031°06'0 0.0
2014-Sep-24 01:30S 29°44' E 031°06'0 0.0
2014-Sep-24 00:12S 29°44' E 031°06'0 0.0
2014-Sep-23 23:30S 29°44' E 031°06'0 0.0
2014-Sep-23 22:24S 29°44' E 031°06'0 0.0
2014-Sep-23 21:18S 29°44' E 031°06'0 0.0
2014-Sep-23 20:30S 29°44' E 031°06'0 0.0
2014-Sep-23 19:30S 29°44' E 031°06'0 0.0
2014-Sep-23 18:33S 29°44' E 031°06'0 0.0
2014-Sep-23 17:24S 29°44' E 031°06'0 0.0
2014-Sep-23 16:30S 29°44' E 031°06'0 0.0
2014-Sep-23 15:33S 29°44' E 031°06'0 0.0
2014-Sep-23 14:33S 29°44' E 031°06'0 0.0
2014-Sep-23 13:33S 29°44' E 031°06'0 0.1
2014-Sep-23 12:33S 29°44' E 031°06'0 0.0
2014-Sep-23 11:33S 29°44' E 031°06'0 0.0
2014-Sep-23 10:27S 29°44' E 031°07'0 0.0
2014-Sep-23 09:33S 29°44' E 031°07'0 0.0
2014-Sep-23 08:33S 29°44' E 031°07'0 0.0
2014-Sep-23 07:27S 29°44' E 031°07'0 0.0
2014-Sep-23 06:33S 29°44' E 031°07'0 0.0
2014-Sep-23 05:27S 29°44' E 031°07'0 0.0
2014-Sep-23 04:21S 29°44' E 031°07'0 0.0
2014-Sep-23 03:27S 29°44' E 031°07'0 0.0
2014-Sep-23 02:33S 29°44' E 031°07'0 0.0
2014-Sep-23 01:27S 29°44' E 031°07'0 0.0
2014-Sep-23 00:27S 29°44' E 031°07'0 0.0
2014-Sep-22 23:27S 29°44' E 031°07'0 0.0
2014-Sep-22 22:15S 29°44' E 031°07'0 0.0
2014-Sep-22 21:15S 29°44' E 031°07'0 0.0
2014-Sep-22 20:33S 29°44' E 031°07'0 0.0
2014-Sep-22 19:33S 29°44' E 031°07'0 0.0
2014-Sep-22 18:15S 29°44' E 031°07'0 0.0
2014-Sep-22 17:27S 29°44' E 031°07'0 0.0
2014-Sep-22 16:33S 29°44' E 031°07'0 0.0
2014-Sep-22 15:33S 29°44' E 031°07'0 0.0
2014-Sep-22 14:33S 29°44' E 031°07'0 0.0
2014-Sep-22 13:33S 29°44' E 031°07'0 0.0
2014-Sep-22 12:15S 29°44' E 031°07'0 0.0
2014-Sep-22 11:33S 29°44' E 031°07'0 0.0
2014-Sep-22 10:33S 29°44' E 031°07'0 0.0
2014-Sep-22 09:21S 29°44' E 031°07'0 0.0
2014-Sep-22 08:21S 29°44' E 031°07'0 0.0
2014-Sep-22 07:27S 29°44' E 031°07'0 0.0
2014-Sep-22 06:33S 29°44' E 031°07'0 0.0
2014-Sep-22 05:27S 29°44' E 031°07'0 0.0
2014-Sep-22 04:33S 29°44' E 031°07'2 1.9
2014-Sep-22 03:32S 29°46' E 031°06'7 7.1
2014-Sep-22 02:33S 29°44' E 031°14'1111.3
2014-Sep-22 01:33S 29°36' E 031°23'1111.2
2014-Sep-22 00:33S 29°28' E 031°32'  

Dump ship's entire track history